AirNav   Pilot Hours Calculator
 
 1236 users online  

0XS6 Lakeside Beach Airport
Spicewood, Texas, USA

GOING TO SPICEWOOD?


FAA INFORMATION EFFECTIVE 08 OCTOBER 2020

Location

FAA Identifier: 0XS6
Lat/Long: 30-30-03.6970N 098-08-49.0650W
30-30.061617N 098-08.817750W
30.5010269,-98.1469625
(estimated)
Elevation: 800 ft. / 244 m (estimated)
Variation: 07E (1985)
From city: 2 miles NE of SPICEWOOD, TX
Time zone: UTC -5 (UTC -6 during Standard Time)
Zip code: 78669

Airport Operations

Airport use: Private use. Permission required prior to landing
Activation date: 09/1972
Control tower: no
ARTCC: HOUSTON CENTER
FSS: SAN ANGELO FLIGHT SERVICE STATION
Attendance: UNATNDD
Segmented circle: no

Airport Communications

WX ASOS at RYW (9 nm E): 119.375 (512-267-1365)
WX AWOS-3 at DZB (11 nm W): 119.775 (830-598-2059)
WX ASOS at BMQ (15 nm N): 119.925 (512-756-7277)

Nearby radio navigation aids

VOR radial/distance  VOR name  Freq  Var
CWKr277/32.8CENTEX VORTAC112.8006E
STVr051/33.9STONEWALL VORTAC113.8008E
GRKr201/36.2GRAY VOR/DME111.8007E
LLOr110/37.5LLANO VORTAC108.2008E

Airport Services

Fuel available: MOGAS

Runway Information

Runway 17/35

Dimensions: 3000 x 75 ft. / 914 x 23 m
Surface: turf
RUNWAY 17  RUNWAY 35
Traffic pattern: leftleft

Airport Ownership and Management from official FAA records

Ownership: Privately-owned
Owner: LAKESIDE BEACH CIVIC ASSOC.
ROUTE 2, BOX 336-D
SPICEWOOD, TX 78669
Phone 512-693-2598
Manager: LAKESIDE BEACH CIVIC ASSOC.
ROUTE 2, BOX 336-D
SPICEWOOD, TX 78669-0393
Phone (512) 693-2598

Additional Remarks

FOR CD CTC AUSTIN APCH AT 512-269-7865.

Instrument Procedures

There are no published instrument procedures at 0XS6.

Some nearby airports with instrument procedures:

KRYW - Lago Vista TX - Rusty Allen Airport (9 nm E)
3R9 - Lakeway Airpark (12 nm SE)
KBMQ - Burnet Municipal Airport-Kate Craddock Field (15 nm N)
KGTU - Georgetown Municipal Airport (26 nm NE)
KEDC - Austin Executive Airport (31 nm E)
 
Loc | Ops | Rwys | IFR | FBO | Links
Com | Nav | Svcs | Stats | Notes
Area around 0XS6 (Lakeside Beach Airport)
 
Road maps at: MapQuest Bing Google
 
Aerial photo
WARNING: Photo may not be current or correct
Aerial photo of 0XS6 (Lakeside Beach Airport)
Do you have a better or more recent aerial photo of Lakeside Beach Airport that you would like to share? If so, please send us your photo.

 
Sectional chart

 
Airport distance calculator
Flying to Lakeside Beach Airport? Find the distance to fly.

From to 0XS6

Sunrise and sunset
Times for 21-Oct-2020
 Local
(UTC-5)
 Zulu
(UTC)
Morning civil twilight07:1612:16
Sunrise07:4112:41
Sunset18:5323:53
Evening civil twilight19:1800:18

Current date and time
Zulu (UTC)  21-Oct-2020 22:11:36
Local (UTC-5)  21-Oct-2020 17:11:36
 
METAR
KRYW 
9nm E 
212155Z AUTO 17005KT 10SM CLR 29/17 A3000 RMK AO2 T02900172
KDZB 
11nm W 
212158Z AUTO 17009G15KT 10SM SCT050 SCT080 31/16 A2998 RMK AO2
KBMQ 
15nm N 
212153Z AUTO 15010G17KT 10SM CLR 29/17 A3000 RMK AO2 SLP141 T02940167
TAF
KAUS 
27nm SE 
211720Z 2118/2224 15011KT P6SM SCT040 FM220600 17007KT P6SM BKN015 FM220900 VRB04KT P6SM BKN009 FM221600 14005KT P6SM BKN015
NOTAMs
Click for the latest NOTAMs
NOTAMs are issued by the DoD/FAA and will open in a separate window not controlled by AirNav.

 

 
 

Would you like to see your business listed on this page?

 If your business provides an interesting product or service to pilots, flight crews, aircraft, or users of the Lakeside Beach Airport, you should consider listing it here.  To start the listing process, click on the button below
 
Add a business
 

Other Pages about Lakeside Beach Airport

Update a link
 
Copyright © AirNav, LLC. All rights reserved. Privacy Policy  Contact